RJNK(TAF)
8/13 2h
TAF RJNK 121705Z 1218/1400 12004KT 9999 FEW030 BKN060 BECMG
1222/1300 36012KT BECMG 1309/1312 24006KT=
戻る
トップページへ戻る
IMOC Co,.Ltd.